sensor_id;sensor_type;location;lat;lon;timestamp;pressure;altitude;pressure_sealevel;temperature;humidity
46944;BME280;32678;43.852;25.952;2023-05-11T00:02:33;101702.50;;;13.70;58.93
46944;BME280;32678;43.852;25.952;2023-05-11T00:07:32;101709.84;;;13.59;58.64
46944;BME280;32678;43.852;25.952;2023-05-11T00:12:29;101701.47;;;13.46;58.69
46944;BME280;32678;43.852;25.952;2023-05-11T00:17:26;101684.91;;;13.13;59.78
46944;BME280;32678;43.852;25.952;2023-05-11T00:22:23;101706.97;;;13.08;60.21
46944;BME280;32678;43.852;25.952;2023-05-11T00:27:19;101708.47;;;12.51;62.03
46944;BME280;32678;43.852;25.952;2023-05-11T00:32:16;101702.09;;;11.92;64.46
46944;BME280;32678;43.852;25.952;2023-05-11T00:37:13;101699.84;;;11.74;65.43
46944;BME280;32678;43.852;25.952;2023-05-11T00:42:10;101698.53;;;11.53;66.62
46944;BME280;32678;43.852;25.952;2023-05-11T00:47:06;101693.72;;;11.73;66.46
46944;BME280;32678;43.852;25.952;2023-05-11T00:52:04;101701.03;;;11.98;65.41
46944;BME280;32678;43.852;25.952;2023-05-11T00:57:01;101695.50;;;11.73;66.89
46944;BME280;32678;43.852;25.952;2023-05-11T01:01:58;101697.50;;;12.00;66.11
46944;BME280;32678;43.852;25.952;2023-05-11T01:07:08;101699.91;;;12.09;65.96
46944;BME280;32678;43.852;25.952;2023-05-11T01:12:09;101702.94;;;12.28;65.33
46944;BME280;32678;43.852;25.952;2023-05-11T01:17:11;101699.53;;;12.58;64.58
46944;BME280;32678;43.852;25.952;2023-05-11T01:22:15;101697.91;;;12.19;65.45
46944;BME280;32678;43.852;25.952;2023-05-11T01:27:20;101701.00;;;12.36;65.29
46944;BME280;32678;43.852;25.952;2023-05-11T01:32:22;101698.28;;;12.39;64.92
46944;BME280;32678;43.852;25.952;2023-05-11T01:37:20;101700.38;;;12.61;64.43
46944;BME280;32678;43.852;25.952;2023-05-11T01:42:19;101701.41;;;12.53;64.38
46944;BME280;32678;43.852;25.952;2023-05-11T01:47:17;101696.63;;;12.35;65.14
46944;BME280;32678;43.852;25.952;2023-05-11T01:52:15;101691.19;;;12.41;64.95
46944;BME280;32678;43.852;25.952;2023-05-11T01:57:14;101698.53;;;12.30;65.34
46944;BME280;32678;43.852;25.952;2023-05-11T02:02:11;101705.19;;;12.08;66.28
46944;BME280;32678;43.852;25.952;2023-05-11T02:07:09;101696.25;;;12.17;66.04
46944;BME280;32678;43.852;25.952;2023-05-11T02:12:07;101696.66;;;12.34;65.05
46944;BME280;32678;43.852;25.952;2023-05-11T02:17:06;101707.50;;;12.55;64.45
46944;BME280;32678;43.852;25.952;2023-05-11T02:22:04;101691.13;;;12.10;65.40
46944;BME280;32678;43.852;25.952;2023-05-11T02:27:01;101689.88;;;11.88;66.34
46944;BME280;32678;43.852;25.952;2023-05-11T02:31:59;101676.25;;;11.71;66.63
46944;BME280;32678;43.852;25.952;2023-05-11T02:37:01;101689.06;;;11.46;68.17
46944;BME280;32678;43.852;25.952;2023-05-11T02:42:05;101697.25;;;11.33;68.82
46944;BME280;32678;43.852;25.952;2023-05-11T02:47:05;101696.00;;;11.09;70.21
46944;BME280;32678;43.852;25.952;2023-05-11T02:52:04;101706.94;;;10.86;71.20
46944;BME280;32678;43.852;25.952;2023-05-11T02:57:07;101709.72;;;11.23;70.18
46944;BME280;32678;43.852;25.952;2023-05-11T03:02:06;101714.91;;;10.80;71.58
46944;BME280;32678;43.852;25.952;2023-05-11T03:07:03;101726.13;;;10.88;71.23
46944;BME280;32678;43.852;25.952;2023-05-11T03:12:00;101721.50;;;11.02;71.14
46944;BME280;32678;43.852;25.952;2023-05-11T03:17:02;101724.44;;;10.85;71.09
46944;BME280;32678;43.852;25.952;2023-05-11T03:21:59;101736.03;;;10.72;71.66
46944;BME280;32678;43.852;25.952;2023-05-11T03:26:57;101729.56;;;10.44;73.05
46944;BME280;32678;43.852;25.952;2023-05-11T03:31:56;101726.88;;;10.47;73.02
46944;BME280;32678;43.852;25.952;2023-05-11T03:36:54;101737.50;;;10.39;73.01
46944;BME280;32678;43.852;25.952;2023-05-11T03:41:53;101741.94;;;10.36;73.49
46944;BME280;32678;43.852;25.952;2023-05-11T03:46:51;101752.09;;;9.97;74.45
46944;BME280;32678;43.852;25.952;2023-05-11T03:51:48;101753.00;;;9.96;75.16
46944;BME280;32678;43.852;25.952;2023-05-11T03:56:45;101756.00;;;10.30;73.80
46944;BME280;32678;43.852;25.952;2023-05-11T04:01:43;101759.91;;;10.00;74.65
46944;BME280;32678;43.852;25.952;2023-05-11T04:06:40;101770.22;;;10.16;74.81
46944;BME280;32678;43.852;25.952;2023-05-11T04:11:41;101770.63;;;10.43;73.82
46944;BME280;32678;43.852;25.952;2023-05-11T04:16:38;101772.75;;;10.72;72.75
46944;BME280;32678;43.852;25.952;2023-05-11T04:21:35;101765.91;;;11.13;70.77
46944;BME280;32678;43.852;25.952;2023-05-11T04:26:32;101778.66;;;11.33;70.60
46944;BME280;32678;43.852;25.952;2023-05-11T04:31:29;101776.63;;;11.01;70.65
46944;BME280;32678;43.852;25.952;2023-05-11T04:36:26;101777.13;;;10.73;71.90
46944;BME280;32678;43.852;25.952;2023-05-11T04:41:24;101775.63;;;10.59;73.53
46944;BME280;32678;43.852;25.952;2023-05-11T04:46:22;101769.16;;;10.78;72.72
46944;BME280;32678;43.852;25.952;2023-05-11T04:51:20;101775.03;;;10.41;74.93
46944;BME280;32678;43.852;25.952;2023-05-11T04:56:17;101780.25;;;10.45;75.58
46944;BME280;32678;43.852;25.952;2023-05-11T05:01:18;101784.75;;;10.85;74.45
46944;BME280;32678;43.852;25.952;2023-05-11T05:06:16;101772.72;;;11.23;73.80
46944;BME280;32678;43.852;25.952;2023-05-11T05:11:13;101776.88;;;11.33;73.08
46944;BME280;32678;43.852;25.952;2023-05-11T05:16:11;101777.66;;;11.38;73.52
46944;BME280;32678;43.852;25.952;2023-05-11T05:21:08;101770.78;;;11.76;72.78
46944;BME280;32678;43.852;25.952;2023-05-11T05:26:05;101779.31;;;12.22;71.74
46944;BME280;32678;43.852;25.952;2023-05-11T05:31:04;101777.31;;;12.69;70.22
46944;BME280;32678;43.852;25.952;2023-05-11T05:36:02;101778.97;;;13.05;68.91
46944;BME280;32678;43.852;25.952;2023-05-11T05:41:03;101780.22;;;13.24;68.14
46944;BME280;32678;43.852;25.952;2023-05-11T05:46:05;101781.56;;;13.39;65.31
46944;BME280;32678;43.852;25.952;2023-05-11T05:51:02;101777.88;;;13.46;64.82
46944;BME280;32678;43.852;25.952;2023-05-11T05:55:58;101785.38;;;13.60;63.17
46944;BME280;32678;43.852;25.952;2023-05-11T06:00:56;101788.41;;;13.46;62.72
46944;BME280;32678;43.852;25.952;2023-05-11T06:05:53;101791.56;;;13.28;63.82
46944;BME280;32678;43.852;25.952;2023-05-11T06:10:50;101789.84;;;13.58;62.80
46944;BME280;32678;43.852;25.952;2023-05-11T06:15:46;101791.94;;;13.76;61.51
46944;BME280;32678;43.852;25.952;2023-05-11T06:20:54;101791.81;;;13.50;62.94
46944;BME280;32678;43.852;25.952;2023-05-11T06:25:54;101791.75;;;13.53;61.25
46944;BME280;32678;43.852;25.952;2023-05-11T06:30:54;101798.34;;;13.67;59.64
46944;BME280;32678;43.852;25.952;2023-05-11T06:35:55;101790.13;;;13.78;60.64
46944;BME280;32678;43.852;25.952;2023-05-11T06:40:55;101784.28;;;13.96;59.52
46944;BME280;32678;43.852;25.952;2023-05-11T06:45:56;101786.69;;;14.04;59.78
46944;BME280;32678;43.852;25.952;2023-05-11T06:50:56;101777.25;;;14.24;59.50
46944;BME280;32678;43.852;25.952;2023-05-11T06:55:53;101787.34;;;14.40;57.44
46944;BME280;32678;43.852;25.952;2023-05-11T07:00:52;101786.69;;;14.59;56.00
46944;BME280;32678;43.852;25.952;2023-05-11T07:05:49;101777.31;;;14.51;56.69
46944;BME280;32678;43.852;25.952;2023-05-11T07:10:48;101778.84;;;14.56;54.94
46944;BME280;32678;43.852;25.952;2023-05-11T07:15:45;101781.31;;;14.87;54.21
46944;BME280;32678;43.852;25.952;2023-05-11T07:20:41;101784.25;;;15.04;50.78
46944;BME280;32678;43.852;25.952;2023-05-11T07:25:38;101792.47;;;15.20;50.94
46944;BME280;32678;43.852;25.952;2023-05-11T07:30:38;101774.09;;;14.92;50.38
46944;BME280;32678;43.852;25.952;2023-05-11T07:35:35;101794.53;;;15.12;50.29
46944;BME280;32678;43.852;25.952;2023-05-11T07:40:34;101792.25;;;15.26;49.81
46944;BME280;32678;43.852;25.952;2023-05-11T07:45:31;101786.38;;;15.68;47.84
46944;BME280;32678;43.852;25.952;2023-05-11T07:50:28;101780.03;;;15.72;48.73
46944;BME280;32678;43.852;25.952;2023-05-11T07:55:25;101777.22;;;15.98;48.17
46944;BME280;32678;43.852;25.952;2023-05-11T08:00:22;101781.09;;;15.89;48.58
46944;BME280;32678;43.852;25.952;2023-05-11T08:05:20;101767.84;;;16.13;46.76
46944;BME280;32678;43.852;25.952;2023-05-11T08:10:18;101775.53;;;16.19;45.90
46944;BME280;32678;43.852;25.952;2023-05-11T08:15:14;101766.50;;;16.24;46.47
46944;BME280;32678;43.852;25.952;2023-05-11T08:20:13;101779.00;;;16.64;45.17
46944;BME280;32678;43.852;25.952;2023-05-11T08:25:14;101771.50;;;16.74;44.40
46944;BME280;32678;43.852;25.952;2023-05-11T08:30:12;101756.94;;;16.42;45.20
46944;BME280;32678;43.852;25.952;2023-05-11T08:35:09;101766.88;;;16.79;44.00
46944;BME280;32678;43.852;25.952;2023-05-11T08:40:07;101762.25;;;16.84;41.88
46944;BME280;32678;43.852;25.952;2023-05-11T08:45:06;101752.72;;;16.80;43.27
46944;BME280;32678;43.852;25.952;2023-05-11T08:50:04;101751.47;;;16.88;42.80
46944;BME280;32678;43.852;25.952;2023-05-11T08:55:01;101747.69;;;17.14;41.33
46944;BME280;32678;43.852;25.952;2023-05-11T08:59:58;101745.88;;;17.15;41.51
46944;BME280;32678;43.852;25.952;2023-05-11T09:04:57;101743.31;;;17.32;41.29
46944;BME280;32678;43.852;25.952;2023-05-11T09:09:54;101744.91;;;17.36;41.01
46944;BME280;32678;43.852;25.952;2023-05-11T09:14:53;101741.38;;;17.36;42.33
46944;BME280;32678;43.852;25.952;2023-05-11T09:19:57;101735.00;;;17.79;40.78
46944;BME280;32678;43.852;25.952;2023-05-11T09:24:56;101736.13;;;17.92;39.90
46944;BME280;32678;43.852;25.952;2023-05-11T09:29:53;101731.34;;;17.62;40.80
46944;BME280;32678;43.852;25.952;2023-05-11T09:34:50;101719.41;;;17.90;41.30
46944;BME280;32678;43.852;25.952;2023-05-11T09:39:47;101714.84;;;17.74;40.67
46944;BME280;32678;43.852;25.952;2023-05-11T09:44:54;101718.66;;;17.88;39.74
46944;BME280;32678;43.852;25.952;2023-05-11T09:49:51;101714.84;;;17.74;40.20
46944;BME280;32678;43.852;25.952;2023-05-11T09:54:49;101724.00;;;18.05;38.71
46944;BME280;32678;43.852;25.952;2023-05-11T09:59:46;101714.75;;;17.95;39.11
46944;BME280;32678;43.852;25.952;2023-05-11T10:04:44;101701.84;;;18.23;38.46
46944;BME280;32678;43.852;25.952;2023-05-11T10:09:41;101706.09;;;18.27;38.54
46944;BME280;32678;43.852;25.952;2023-05-11T10:14:37;101687.13;;;18.17;38.47
46944;BME280;32678;43.852;25.952;2023-05-11T10:19:34;101704.25;;;17.93;39.58
46944;BME280;32678;43.852;25.952;2023-05-11T10:24:35;101692.66;;;18.13;39.41
46944;BME280;32678;43.852;25.952;2023-05-11T10:29:32;101676.53;;;17.99;38.77
46944;BME280;32678;43.852;25.952;2023-05-11T10:34:29;101690.16;;;18.44;38.51
46944;BME280;32678;43.852;25.952;2023-05-11T10:39:27;101671.00;;;18.56;37.82
46944;BME280;32678;43.852;25.952;2023-05-11T10:49:47;101677.22;;;18.55;36.78
46944;BME280;32678;43.852;25.952;2023-05-11T10:54:51;101657.72;;;18.56;37.13
46944;BME280;32678;43.852;25.952;2023-05-11T10:59:57;101661.56;;;18.84;36.99
46944;BME280;32678;43.852;25.952;2023-05-11T11:05:05;101666.88;;;18.84;36.49
46944;BME280;32678;43.852;25.952;2023-05-11T11:10:06;101670.88;;;18.58;37.25
46944;BME280;32678;43.852;25.952;2023-05-11T11:15:06;101656.91;;;18.54;36.65
46944;BME280;32678;43.852;25.952;2023-05-11T11:20:05;101663.78;;;18.41;36.20
46944;BME280;32678;43.852;25.952;2023-05-11T11:25:02;101650.88;;;18.51;35.90
46944;BME280;32678;43.852;25.952;2023-05-11T11:30:16;101646.28;;;18.54;35.71
46944;BME280;32678;43.852;25.952;2023-05-11T11:40:34;101642.31;;;18.96;35.17
46944;BME280;32678;43.852;25.952;2023-05-11T11:45:51;101641.97;;;19.02;33.95
46944;BME280;32678;43.852;25.952;2023-05-11T11:51:04;101634.75;;;18.88;33.79
46944;BME280;32678;43.852;25.952;2023-05-11T11:56:02;101633.50;;;19.11;34.32
46944;BME280;32678;43.852;25.952;2023-05-11T12:01:02;101630.94;;;19.10;34.65
46944;BME280;32678;43.852;25.952;2023-05-11T12:05:59;101627.25;;;19.12;33.36
46944;BME280;32678;43.852;25.952;2023-05-11T12:10:59;101625.78;;;18.91;33.34
46944;BME280;32678;43.852;25.952;2023-05-11T12:16:09;101618.44;;;18.79;32.87
46944;BME280;32678;43.852;25.952;2023-05-11T12:21:17;101609.31;;;19.16;32.58
46944;BME280;32678;43.852;25.952;2023-05-11T12:26:14;101608.22;;;19.04;33.45
46944;BME280;32678;43.852;25.952;2023-05-11T12:31:16;101600.16;;;19.06;32.82
46944;BME280;32678;43.852;25.952;2023-05-11T12:36:13;101600.75;;;18.95;32.21
46944;BME280;32678;43.852;25.952;2023-05-11T12:41:17;101583.34;;;19.05;32.41
46944;BME280;32678;43.852;25.952;2023-05-11T12:46:14;101585.00;;;19.39;32.26
46944;BME280;32678;43.852;25.952;2023-05-11T12:51:15;101577.69;;;19.27;32.19
46944;BME280;32678;43.852;25.952;2023-05-11T12:56:43;101575.31;;;19.54;31.55
46944;BME280;32678;43.852;25.952;2023-05-11T13:01:39;101568.31;;;19.35;33.31
46944;BME280;32678;43.852;25.952;2023-05-11T13:06:37;101574.78;;;19.47;32.56
46944;BME280;32678;43.852;25.952;2023-05-11T13:11:34;101554.81;;;19.24;32.46
46944;BME280;32678;43.852;25.952;2023-05-11T13:16:32;101552.47;;;19.34;32.70
46944;BME280;32678;43.852;25.952;2023-05-11T13:21:31;101555.63;;;19.72;32.48
46944;BME280;32678;43.852;25.952;2023-05-11T13:26:29;101554.28;;;19.33;31.90
46944;BME280;32678;43.852;25.952;2023-05-11T13:31:26;101556.25;;;19.45;31.55
46944;BME280;32678;43.852;25.952;2023-05-11T13:36:27;101567.41;;;19.05;31.99
46944;BME280;32678;43.852;25.952;2023-05-11T13:41:24;101561.03;;;19.08;32.02
46944;BME280;32678;43.852;25.952;2023-05-11T13:46:22;101555.38;;;18.98;32.74
46944;BME280;32678;43.852;25.952;2023-05-11T13:51:19;101543.47;;;18.89;32.92
46944;BME280;32678;43.852;25.952;2023-05-11T13:56:16;101550.16;;;19.12;32.33
46944;BME280;32678;43.852;25.952;2023-05-11T14:01:14;101545.69;;;19.28;32.14
46944;BME280;32678;43.852;25.952;2023-05-11T14:06:13;101553.75;;;19.11;32.38
46944;BME280;32678;43.852;25.952;2023-05-11T14:11:10;101554.84;;;18.91;32.16
46944;BME280;32678;43.852;25.952;2023-05-11T14:16:07;101557.00;;;18.85;33.13
46944;BME280;32678;43.852;25.952;2023-05-11T14:21:05;101553.66;;;18.97;33.07
46944;BME280;32678;43.852;25.952;2023-05-11T14:26:02;101552.22;;;19.38;32.37
46944;BME280;32678;43.852;25.952;2023-05-11T14:30:59;101560.13;;;19.24;32.59
46944;BME280;32678;43.852;25.952;2023-05-11T14:35:56;101560.72;;;19.14;32.84
46944;BME280;32678;43.852;25.952;2023-05-11T14:40:53;101556.06;;;19.01;33.07
46944;BME280;32678;43.852;25.952;2023-05-11T14:45:51;101556.66;;;18.75;33.45
46944;BME280;32678;43.852;25.952;2023-05-11T14:50:48;101560.56;;;18.68;34.16
46944;BME280;32678;43.852;25.952;2023-05-11T14:55:47;101564.16;;;18.67;34.01
46944;BME280;32678;43.852;25.952;2023-05-11T15:00:44;101555.81;;;18.57;34.63
46944;BME280;32678;43.852;25.952;2023-05-11T15:05:45;101568.34;;;18.55;34.10
46944;BME280;32678;43.852;25.952;2023-05-11T15:10:44;101553.97;;;18.59;34.32
46944;BME280;32678;43.852;25.952;2023-05-11T15:15:41;101550.19;;;18.64;34.72
46944;BME280;32678;43.852;25.952;2023-05-11T15:20:38;101557.78;;;18.54;35.04
46944;BME280;32678;43.852;25.952;2023-05-11T15:25:38;101560.03;;;18.44;34.67
46944;BME280;32678;43.852;25.952;2023-05-11T15:30:35;101550.69;;;18.54;34.63
46944;BME280;32678;43.852;25.952;2023-05-11T15:35:35;101543.19;;;18.78;34.24
46944;BME280;32678;43.852;25.952;2023-05-11T15:40:32;101555.09;;;18.71;34.74
46944;BME280;32678;43.852;25.952;2023-05-11T15:45:29;101552.84;;;18.64;35.21
46944;BME280;32678;43.852;25.952;2023-05-11T15:50:26;101550.91;;;18.83;34.70
46944;BME280;32678;43.852;25.952;2023-05-11T15:55:26;101552.56;;;18.35;34.24
46944;BME280;32678;43.852;25.952;2023-05-11T16:00:23;101556.00;;;18.54;34.34
46944;BME280;32678;43.852;25.952;2023-05-11T16:05:20;101554.22;;;18.55;34.33
46944;BME280;32678;43.852;25.952;2023-05-11T16:10:17;101554.63;;;18.63;34.76
46944;BME280;32678;43.852;25.952;2023-05-11T16:15:16;101556.84;;;18.38;34.85
46944;BME280;32678;43.852;25.952;2023-05-11T16:20:15;101566.19;;;18.12;34.61
46944;BME280;32678;43.852;25.952;2023-05-11T16:25:13;101569.75;;;17.94;35.18
46944;BME280;32678;43.852;25.952;2023-05-11T16:30:10;101562.81;;;18.08;35.19
46944;BME280;32678;43.852;25.952;2023-05-11T16:35:20;101575.63;;;18.17;35.38
46944;BME280;32678;43.852;25.952;2023-05-11T16:40:18;101577.19;;;18.22;36.31
46944;BME280;32678;43.852;25.952;2023-05-11T16:45:16;101572.63;;;18.24;36.19
46944;BME280;32678;43.852;25.952;2023-05-11T16:50:13;101585.31;;;18.01;36.50
46944;BME280;32678;43.852;25.952;2023-05-11T16:55:12;101585.59;;;17.78;36.53
46944;BME280;32678;43.852;25.952;2023-05-11T17:00:12;101592.13;;;17.71;36.48
46944;BME280;32678;43.852;25.952;2023-05-11T17:05:09;101600.84;;;17.37;37.48
46944;BME280;32678;43.852;25.952;2023-05-11T17:10:06;101611.22;;;17.23;38.14
46944;BME280;32678;43.852;25.952;2023-05-11T17:15:05;101612.59;;;17.13;38.89
46944;BME280;32678;43.852;25.952;2023-05-11T17:20:05;101615.88;;;17.18;39.14
46944;BME280;32678;43.852;25.952;2023-05-11T17:25:05;101623.91;;;16.59;40.20
46944;BME280;32678;43.852;25.952;2023-05-11T17:30:02;101630.06;;;16.59;40.39
46944;BME280;32678;43.852;25.952;2023-05-11T17:34:59;101628.78;;;16.68;40.43
46944;BME280;32678;43.852;25.952;2023-05-11T17:39:57;101626.84;;;16.51;41.47
46944;BME280;32678;43.852;25.952;2023-05-11T17:44:54;101633.94;;;16.51;41.88
46944;BME280;32678;43.852;25.952;2023-05-11T17:49:51;101639.97;;;16.74;41.79
46944;BME280;32678;43.852;25.952;2023-05-11T17:54:48;101642.84;;;16.88;41.67
46944;BME280;32678;43.852;25.952;2023-05-11T17:59:48;101654.28;;;16.70;42.09
46944;BME280;32678;43.852;25.952;2023-05-11T18:04:45;101649.16;;;16.45;42.43
46944;BME280;32678;43.852;25.952;2023-05-11T18:09:41;101645.25;;;15.92;43.16
46944;BME280;32678;43.852;25.952;2023-05-11T18:14:41;101655.53;;;15.78;43.63
46944;BME280;32678;43.852;25.952;2023-05-11T18:19:38;101667.22;;;15.72;43.53
46944;BME280;32678;43.852;25.952;2023-05-11T18:24:35;101672.06;;;16.04;42.68
46944;BME280;32678;43.852;25.952;2023-05-11T18:29:32;101684.44;;;15.82;42.98
46944;BME280;32678;43.852;25.952;2023-05-11T18:34:28;101684.81;;;15.73;42.95
46944;BME280;32678;43.852;25.952;2023-05-11T18:39:26;101695.63;;;15.67;43.28
46944;BME280;32678;43.852;25.952;2023-05-11T18:44:22;101695.63;;;15.44;43.77
46944;BME280;32678;43.852;25.952;2023-05-11T18:49:19;101688.69;;;15.40;44.00
46944;BME280;32678;43.852;25.952;2023-05-11T18:54:16;101699.28;;;15.16;44.52
46944;BME280;32678;43.852;25.952;2023-05-11T18:59:13;101698.00;;;15.03;45.29
46944;BME280;32678;43.852;25.952;2023-05-11T19:04:09;101697.31;;;15.22;44.94
46944;BME280;32678;43.852;25.952;2023-05-11T19:09:06;101712.50;;;15.16;45.25
46944;BME280;32678;43.852;25.952;2023-05-11T19:14:03;101710.56;;;14.97;45.97
46944;BME280;32678;43.852;25.952;2023-05-11T19:19:00;101710.22;;;14.56;47.33
46944;BME280;32678;43.852;25.952;2023-05-11T19:23:57;101708.84;;;14.71;47.20
46944;BME280;32678;43.852;25.952;2023-05-11T19:28:54;101711.97;;;14.57;47.14
46944;BME280;32678;43.852;25.952;2023-05-11T19:33:50;101718.44;;;14.49;46.38
46944;BME280;32678;43.852;25.952;2023-05-11T19:38:48;101692.13;;;14.19;46.27
46944;BME280;32678;43.852;25.952;2023-05-11T19:43:47;101709.31;;;14.05;46.70
46944;BME280;32678;43.852;25.952;2023-05-11T19:48:44;101730.59;;;14.26;46.31
46944;BME280;32678;43.852;25.952;2023-05-11T19:53:41;101730.59;;;14.26;46.47
46944;BME280;32678;43.852;25.952;2023-05-11T19:58:39;101733.09;;;14.29;46.51
46944;BME280;32678;43.852;25.952;2023-05-11T20:03:36;101732.28;;;14.27;46.69
46944;BME280;32678;43.852;25.952;2023-05-11T20:08:33;101729.34;;;14.38;46.32
46944;BME280;32678;43.852;25.952;2023-05-11T20:13:30;101730.94;;;14.42;46.64
46944;BME280;32678;43.852;25.952;2023-05-11T20:18:27;101735.50;;;14.11;47.22
46944;BME280;32678;43.852;25.952;2023-05-11T20:23:24;101738.91;;;14.13;46.86
46944;BME280;32678;43.852;25.952;2023-05-11T20:28:22;101740.19;;;14.27;46.36
46944;BME280;32678;43.852;25.952;2023-05-11T20:33:22;101746.72;;;13.88;47.21
46944;BME280;32678;43.852;25.952;2023-05-11T20:38:22;101740.63;;;13.87;47.64
46944;BME280;32678;43.852;25.952;2023-05-11T20:43:19;101743.25;;;13.87;47.55
46944;BME280;32678;43.852;25.952;2023-05-11T20:48:15;101735.69;;;13.77;47.84
46944;BME280;32678;43.852;25.952;2023-05-11T20:53:25;101749.28;;;14.19;47.07
46944;BME280;32678;43.852;25.952;2023-05-11T20:58:21;101755.72;;;14.38;46.52
46944;BME280;32678;43.852;25.952;2023-05-11T21:03:18;101754.16;;;14.03;47.07
46944;BME280;32678;43.852;25.952;2023-05-11T21:08:15;101745.47;;;14.01;47.83
46944;BME280;32678;43.852;25.952;2023-05-11T21:13:13;101749.72;;;14.05;48.13
46944;BME280;32678;43.852;25.952;2023-05-11T21:18:09;101755.28;;;14.24;47.93
46944;BME280;32678;43.852;25.952;2023-05-11T21:23:06;101745.28;;;14.07;48.80
46944;BME280;32678;43.852;25.952;2023-05-11T21:28:03;101746.94;;;14.10;49.12
46944;BME280;32678;43.852;25.952;2023-05-11T21:33:01;101760.38;;;14.02;49.75
46944;BME280;32678;43.852;25.952;2023-05-11T21:37:58;101756.63;;;14.09;49.88
46944;BME280;32678;43.852;25.952;2023-05-11T21:42:54;101752.47;;;14.28;49.93
46944;BME280;32678;43.852;25.952;2023-05-11T21:47:51;101747.75;;;14.12;50.56
46944;BME280;32678;43.852;25.952;2023-05-11T21:52:48;101744.38;;;14.35;50.42
46944;BME280;32678;43.852;25.952;2023-05-11T21:57:45;101752.41;;;14.31;50.84
46944;BME280;32678;43.852;25.952;2023-05-11T22:02:41;101749.38;;;14.16;51.63
46944;BME280;32678;43.852;25.952;2023-05-11T22:07:38;101741.94;;;14.28;51.70
46944;BME280;32678;43.852;25.952;2023-05-11T22:12:36;101742.03;;;14.25;51.69
46944;BME280;32678;43.852;25.952;2023-05-11T22:17:32;101735.41;;;14.12;52.52
46944;BME280;32678;43.852;25.952;2023-05-11T22:22:29;101733.06;;;14.31;52.37
46944;BME280;32678;43.852;25.952;2023-05-11T22:27:25;101732.69;;;14.15;52.73
46944;BME280;32678;43.852;25.952;2023-05-11T22:32:23;101723.56;;;14.25;52.83
46944;BME280;32678;43.852;25.952;2023-05-11T22:37:20;101717.81;;;14.13;53.29
46944;BME280;32678;43.852;25.952;2023-05-11T22:42:16;101717.94;;;13.82;54.82
46944;BME280;32678;43.852;25.952;2023-05-11T22:47:13;101701.72;;;13.94;54.93
46944;BME280;32678;43.852;25.952;2023-05-11T22:52:10;101707.19;;;13.88;55.49
46944;BME280;32678;43.852;25.952;2023-05-11T22:57:07;101709.13;;;14.11;55.17
46944;BME280;32678;43.852;25.952;2023-05-11T23:02:04;101710.94;;;14.37;54.39
46944;BME280;32678;43.852;25.952;2023-05-11T23:07:01;101710.53;;;14.21;54.98
46944;BME280;32678;43.852;25.952;2023-05-11T23:12:00;101715.00;;;14.19;55.21
46944;BME280;32678;43.852;25.952;2023-05-11T23:16:56;101723.63;;;13.39;58.05
46944;BME280;32678;43.852;25.952;2023-05-11T23:21:53;101712.66;;;12.92;59.44
46944;BME280;32678;43.852;25.952;2023-05-11T23:26:49;101715.88;;;13.02;59.34
46944;BME280;32678;43.852;25.952;2023-05-11T23:31:47;101727.63;;;13.23;59.61
46944;BME280;32678;43.852;25.952;2023-05-11T23:36:45;101717.66;;;13.34;58.96
46944;BME280;32678;43.852;25.952;2023-05-11T23:41:42;101729.75;;;13.39;58.79
46944;BME280;32678;43.852;25.952;2023-05-11T23:46:39;101712.13;;;13.43;58.66
46944;BME280;32678;43.852;25.952;2023-05-11T23:51:36;101717.03;;;13.54;58.20
46944;BME280;32678;43.852;25.952;2023-05-11T23:56:33;101715.94;;;13.62;58.07
